createdAt,value
2016-06-13T00:00:04.950Z,22.29
2016-06-13T00:01:04.750Z,22.31
2016-06-13T00:02:04.550Z,22.27
2016-06-13T00:03:04.537Z,22.33
2016-06-13T00:04:04.946Z,22.24
2016-06-13T00:05:04.747Z,22.26
2016-06-13T00:06:04.750Z,22.3
2016-06-13T00:07:04.737Z,22.29
2016-06-13T00:08:04.755Z,22.29
2016-06-13T00:09:04.946Z,22.3
2016-06-13T00:10:04.746Z,22.26
2016-06-13T00:11:04.874Z,22.3
2016-06-13T00:12:04.533Z,22.22
2016-06-13T00:13:04.741Z,22.27
2016-06-13T00:14:04.743Z,22.26
2016-06-13T00:15:04.542Z,22.3
2016-06-13T00:16:04.780Z,22.3
2016-06-13T00:17:04.753Z,22.3
2016-06-13T00:18:04.771Z,22.29
2016-06-13T00:19:04.742Z,22.26
2016-06-13T00:20:04.949Z,22.26
2016-06-13T00:21:04.546Z,22.29
2016-06-13T00:22:04.549Z,22.23
2016-06-13T00:23:04.755Z,22.2
2016-06-13T00:24:04.556Z,22.26
2016-06-13T00:25:04.761Z,22.2
2016-06-13T00:26:04.748Z,22.27
2016-06-13T00:27:04.548Z,22.27
2016-06-13T00:28:04.348Z,22.23
2016-06-13T00:29:04.743Z,22.26
2016-06-13T00:30:04.776Z,22.24
2016-06-13T00:31:04.779Z,22.26
2016-06-13T00:32:04.752Z,22.22
2016-06-13T00:33:04.755Z,22.26
2016-06-13T00:34:04.539Z,22.23
2016-06-13T00:35:04.745Z,22.26
2016-06-13T00:36:04.545Z,22.23
2016-06-13T00:37:04.751Z,22.22
2016-06-13T00:38:04.598Z,22.16
2016-06-13T00:39:04.960Z,22.24
2016-06-13T00:40:04.542Z,22.22
2016-06-13T00:41:04.560Z,22.15
2016-06-13T00:42:04.329Z,22.15
2016-06-13T00:43:04.801Z,22.18
2016-06-13T00:44:04.336Z,22.09
2016-06-13T00:45:04.541Z,22.16
2016-06-13T00:46:04.951Z,22.18
2016-06-13T00:47:04.750Z,22.11
2016-06-13T00:48:04.957Z,22.11
2016-06-13T00:49:04.757Z,22.11
2016-06-13T00:50:04.744Z,22.08
2016-06-13T00:51:04.544Z,22.15
2016-06-13T00:52:04.328Z,22.08
2016-06-13T00:53:04.550Z,22.11
2016-06-13T00:54:04.757Z,22.11
2016-06-13T00:55:04.947Z,22.15
2016-06-13T00:56:04.560Z,22.12
2016-06-13T00:57:04.751Z,22.09
2016-06-13T00:58:04.754Z,22.16
2016-06-13T00:59:04.553Z,22.08
2016-06-13T01:00:04.947Z,22.12
2016-06-13T01:01:04.747Z,22.09
2016-06-13T01:02:04.344Z,22.18
2016-06-13T01:03:04.753Z,22.14
2016-06-13T01:04:04.600Z,22.14
2016-06-13T01:05:04.744Z,22.02
2016-06-13T01:06:04.543Z,22.05
2016-06-13T01:07:04.749Z,22.02
2016-06-13T01:08:04.753Z,22.12
2016-06-13T01:09:04.537Z,22.05
2016-06-13T01:10:04.743Z,22.11
2016-06-13T01:11:05.027Z,22.11
2016-06-13T01:12:04.953Z,22.07
2016-06-13T01:13:04.190Z,22.08
2016-06-13T01:14:04.958Z,22.16
2016-06-13T01:15:04.759Z,22.08
2016-06-13T01:16:04.434Z,22.04
2016-06-13T01:17:04.546Z,22.08
2016-06-13T01:18:04.799Z,22.05
2016-06-13T01:19:04.739Z,22
2016-06-13T01:20:04.758Z,22.07
2016-06-13T01:21:04.745Z,22.07
2016-06-13T01:22:04.546Z,22.02
2016-06-13T01:23:04.752Z,22.02
2016-06-13T01:24:04.754Z,22.08
2016-06-13T01:25:04.742Z,22.05
2016-06-13T01:26:05.979Z,22.09
2016-06-13T01:27:04.952Z,22.02
2016-06-13T01:28:04.533Z,22.04
2016-06-13T01:29:04.536Z,21.89
2016-06-13T01:30:04.945Z,22
2016-06-13T01:31:04.745Z,21.99
2016-06-13T01:32:04.748Z,22.08
2016-06-13T01:33:04.548Z,21.85
2016-06-13T01:34:04.755Z,22
2016-06-13T01:35:04.351Z,21.97
2016-06-13T01:36:04.541Z,21.94
2016-06-13T01:37:04.952Z,21.96
2016-06-13T01:38:04.345Z,22.04
2016-06-13T01:39:04.739Z,21.94
2016-06-13T01:40:04.382Z,21.94
2016-06-13T01:41:05.182Z,21.89
2016-06-13T01:42:04.357Z,22.02
2016-06-13T01:43:04.798Z,21.89
2016-06-13T01:44:04.738Z,21.99
2016-06-13T01:45:04.742Z,21.99
2016-06-13T01:46:04.541Z,21.9
2016-06-13T01:47:04.747Z,22
2016-06-13T01:48:04.750Z,21.96
2016-06-13T01:49:04.597Z,21.85
2016-06-13T01:50:04.960Z,21.92
2016-06-13T01:51:04.744Z,22.02
2016-06-13T01:52:04.794Z,21.93
2016-06-13T01:53:04.953Z,21.97
2016-06-13T01:54:04.941Z,21.97
2016-06-13T01:55:04.959Z,21.99
2016-06-13T01:56:05.353Z,22
2016-06-13T01:57:04.763Z,21.93
2016-06-13T01:58:04.750Z,21.94
2016-06-13T01:59:04.753Z,21.93
2016-06-13T02:00:04.756Z,21.93
2016-06-13T02:01:04.760Z,21.96
2016-06-13T02:02:04.746Z,21.96
2016-06-13T02:03:04.734Z,21.86
2016-06-13T02:04:04.769Z,21.99
2016-06-13T02:05:04.959Z,21.93
2016-06-13T02:06:04.338Z,21.97
2016-06-13T02:07:04.747Z,21.97
2016-06-13T02:08:04.952Z,21.92
2016-06-13T02:09:04.550Z,21.97
2016-06-13T02:10:04.740Z,21.94
2016-06-13T02:11:04.743Z,21.9
2016-06-13T02:12:04.199Z,21.9
2016-06-13T02:13:04.546Z,21.97
2016-06-13T02:14:04.737Z,21.96
2016-06-13T02:15:04.959Z,21.97
2016-06-13T02:16:04.961Z,21.94
2016-06-13T02:17:04.761Z,21.86
2016-06-13T02:18:04.733Z,21.97
2016-06-13T02:19:04.534Z,21.85
2016-06-13T02:20:04.943Z,21.86
2016-06-13T02:21:04.743Z,21.93
2016-06-13T02:22:04.746Z,21.9
2016-06-13T02:23:04.749Z,21.89
2016-06-13T02:24:04.549Z,21.86
2016-06-13T02:25:04.942Z,21.9
2016-06-13T02:26:04.695Z,21.89
2016-06-13T02:27:05.277Z,21.9
2016-06-13T02:28:04.592Z,21.83
2016-06-13T02:29:04.940Z,21.92
2016-06-13T02:30:04.754Z,21.93
2016-06-13T02:31:04.946Z,21.86
2016-06-13T02:32:04.746Z,21.92
2016-06-13T02:33:04.733Z,21.86
2016-06-13T02:34:04.532Z,21.89
2016-06-13T02:35:04.739Z,21.82
2016-06-13T02:36:04.742Z,21.9
2016-06-13T02:37:04.948Z,21.92
2016-06-13T02:38:04.748Z,21.83
2016-06-13T02:39:04.532Z,21.86
2016-06-13T02:40:04.942Z,21.82
2016-06-13T02:41:05.070Z,21.82
2016-06-13T02:42:04.541Z,21.8
2016-06-13T02:43:04.327Z,21.86
2016-06-13T02:44:04.330Z,21.83
2016-06-13T02:45:04.535Z,21.76
2016-06-13T02:46:04.742Z,21.8
2016-06-13T02:47:04.729Z,21.82
2016-06-13T02:48:04.326Z,21.82
2016-06-13T02:49:04.734Z,21.82
2016-06-13T02:50:04.737Z,21.83
2016-06-13T02:51:04.741Z,21.77
2016-06-13T02:52:04.744Z,21.86
2016-06-13T02:53:04.325Z,21.77
2016-06-13T02:54:04.938Z,21.68
2016-06-13T02:55:04.942Z,21.76
2016-06-13T02:56:04.944Z,21.83
2016-06-13T02:57:04.384Z,21.73
2016-06-13T02:58:04.544Z,21.78
2016-06-13T02:59:04.532Z,21.71
2016-06-13T03:00:04.738Z,21.78
2016-06-13T03:01:04.537Z,21.74
2016-06-13T03:02:04.728Z,21.83
2016-06-13T03:03:04.528Z,21.78
2016-06-13T03:04:04.531Z,21.9
2016-06-13T03:05:04.737Z,21.7
2016-06-13T03:06:04.537Z,21.73
2016-06-13T03:07:04.743Z,21.78
2016-06-13T03:08:04.732Z,21.82
2016-06-13T03:09:04.531Z,21.77
2016-06-13T03:10:04.737Z,21.74
2016-06-13T03:11:04.741Z,21.78
2016-06-13T03:12:04.525Z,21.77
2016-06-13T03:13:04.527Z,21.8
2016-06-13T03:14:04.531Z,21.74
2016-06-13T03:15:04.534Z,21.78
2016-06-13T03:16:04.520Z,21.76
2016-06-13T03:17:04.727Z,21.77
2016-06-13T03:18:04.730Z,21.73
2016-06-13T03:19:04.749Z,21.76
2016-06-13T03:20:04.940Z,21.77
2016-06-13T03:21:04.725Z,21.77
2016-06-13T03:22:04.727Z,21.8
2016-06-13T03:23:04.324Z,21.74
2016-06-13T03:24:04.733Z,21.8
2016-06-13T03:25:04.737Z,21.7
2016-06-13T03:26:04.520Z,21.78
2016-06-13T03:27:04.779Z,21.67
2016-06-13T03:28:04.433Z,21.71
2016-06-13T03:29:04.679Z,21.68
2016-06-13T03:30:04.676Z,21.67
2016-06-13T03:31:05.110Z,21.78
2016-06-13T03:32:04.937Z,21.7
2016-06-13T03:33:05.156Z,21.71
2016-06-13T03:34:04.955Z,21.66
2016-06-13T03:35:04.769Z,21.66
2016-06-13T03:36:04.990Z,21.66
2016-06-13T03:37:05.002Z,21.74
2016-06-13T03:38:04.651Z,21.7
2016-06-13T03:39:05.003Z,21.64
2016-06-13T03:40:04.808Z,21.71
2016-06-13T03:41:04.723Z,21.76
2016-06-13T03:42:05.495Z,21.7
2016-06-13T03:43:04.828Z,21.71
2016-06-13T03:44:05.224Z,21.73
2016-06-13T03:45:04.838Z,21.71
2016-06-13T03:46:05.234Z,21.73
2016-06-13T03:47:05.239Z,21.66
2016-06-13T03:48:04.821Z,21.66
2016-06-13T03:49:04.824Z,21.71
2016-06-13T03:50:05.031Z,21.7
2016-06-13T03:51:04.832Z,21.71
2016-06-13T03:52:05.039Z,21.7
2016-06-13T03:53:05.025Z,21.74
2016-06-13T03:54:04.467Z,21.68
2016-06-13T03:55:04.828Z,21.74
2016-06-13T03:56:04.832Z,21.7
2016-06-13T03:57:05.617Z,21.68
2016-06-13T03:58:05.026Z,21.61
2016-06-13T03:59:05.029Z,21.7
2016-06-13T04:00:05.032Z,21.61
2016-06-13T04:01:04.847Z,21.59
2016-06-13T04:02:04.819Z,21.62
2016-06-13T04:03:05.229Z,21.7
2016-06-13T04:04:05.231Z,21.62
2016-06-13T04:05:04.813Z,21.62
2016-06-13T04:06:05.019Z,21.64
2016-06-13T04:07:04.819Z,21.64
2016-06-13T04:08:05.229Z,21.64
2016-06-13T04:09:05.028Z,21.61
2016-06-13T04:10:05.235Z,21.62
2016-06-13T04:11:04.816Z,21.59
2016-06-13T04:12:05.022Z,21.62
2016-06-13T04:13:05.228Z,21.66
2016-06-13T04:14:04.825Z,21.62
2016-06-13T04:15:05.031Z,21.68
2016-06-13T04:16:05.066Z,21.66
2016-06-13T04:17:04.818Z,21.61
2016-06-13T04:18:05.024Z,21.62
2016-06-13T04:19:04.825Z,21.61
2016-06-13T04:20:04.453Z,21.62
2016-06-13T04:21:05.033Z,21.59
2016-06-13T04:22:05.021Z,21.62
2016-06-13T04:23:04.617Z,21.59
2016-06-13T04:24:05.012Z,21.64
2016-06-13T04:25:05.015Z,21.66
2016-06-13T04:26:05.033Z,21.66
2016-06-13T04:27:04.818Z,21.66
2016-06-13T04:28:04.805Z,21.61
2016-06-13T04:29:05.215Z,21.61
2016-06-13T04:30:05.014Z,21.55
2016-06-13T04:31:04.815Z,21.55
2016-06-13T04:32:05.020Z,21.61
2016-06-13T04:33:05.008Z,21.61
2016-06-13T04:34:05.230Z,21.59
2016-06-13T04:35:05.217Z,21.56
2016-06-13T04:36:05.221Z,21.58
2016-06-13T04:37:04.801Z,21.61
2016-06-13T04:38:04.821Z,21.58
2016-06-13T04:39:05.011Z,21.53
2016-06-13T04:40:04.811Z,21.55
2016-06-13T04:41:05.002Z,21.61
2016-06-13T04:42:04.692Z,21.58
2016-06-13T04:43:05.008Z,21.55
2016-06-13T04:44:05.012Z,21.56
2016-06-13T04:45:04.810Z,21.53
2016-06-13T04:46:05.204Z,21.55
2016-06-13T04:47:04.864Z,21.52
2016-06-13T04:48:04.804Z,21.53
2016-06-13T04:49:05.010Z,21.52
2016-06-13T04:50:05.216Z,21.48
2016-06-13T04:51:05.204Z,21.56
2016-06-13T04:52:05.020Z,21.55
2016-06-13T04:53:05.210Z,21.55
2016-06-13T04:54:04.854Z,21.48
2016-06-13T04:55:05.013Z,21.48
2016-06-13T04:56:04.610Z,21.52
2016-06-13T04:57:05.614Z,21.55
2016-06-13T04:58:05.008Z,21.52
2016-06-13T04:59:04.807Z,21.53
2016-06-13T05:00:04.810Z,21.49
2016-06-13T05:01:04.798Z,21.51
2016-06-13T05:02:05.004Z,21.51
2016-06-13T05:03:05.210Z,21.58
2016-06-13T05:04:05.198Z,21.52
2016-06-13T05:05:05.012Z,21.56
2016-06-13T05:06:04.797Z,21.55
2016-06-13T05:07:04.847Z,21.55
2016-06-13T05:08:05.210Z,21.61
2016-06-13T05:09:05.197Z,21.49
2016-06-13T05:10:04.997Z,21.52
2016-06-13T05:11:05.000Z,21.53
2016-06-13T05:12:04.800Z,21.55
2016-06-13T05:13:04.803Z,21.49
2016-06-13T05:14:05.197Z,21.46
2016-06-13T05:15:04.794Z,21.52
2016-06-13T05:16:05.202Z,21.52
2016-06-13T05:17:05.222Z,21.52
2016-06-13T05:18:04.647Z,21.48
2016-06-13T05:19:05.197Z,21.49
2016-06-13T05:20:04.997Z,21.49
2016-06-13T05:21:05.000Z,21.52
2016-06-13T05:22:04.987Z,21.55
2016-06-13T05:23:04.787Z,21.52
2016-06-13T05:24:04.993Z,21.49
2016-06-13T05:25:04.996Z,21.49
2016-06-13T05:26:05.000Z,21.46
2016-06-13T05:27:04.769Z,21.53
2016-06-13T05:28:05.192Z,21.51
2016-06-13T05:29:04.774Z,21.53
2016-06-13T05:30:04.574Z,21.46
2016-06-13T05:31:04.796Z,21.49
2016-06-13T05:32:04.987Z,21.49
2016-06-13T05:33:04.787Z,21.52
2016-06-13T05:34:05.196Z,21.52
2016-06-13T05:35:04.777Z,21.51
2016-06-13T05:36:04.780Z,21.51
2016-06-13T05:37:04.986Z,21.55
2016-06-13T05:38:05.192Z,21.49
2016-06-13T05:39:05.195Z,21.51
2016-06-13T05:40:04.979Z,21.52
2016-06-13T05:41:04.779Z,21.49
2016-06-13T05:42:05.299Z,21.53
2016-06-13T05:43:04.568Z,21.53
2016-06-13T05:44:04.977Z,21.45
2016-06-13T05:45:04.777Z,21.48
2016-06-13T05:46:04.983Z,21.45
2016-06-13T05:47:05.189Z,21.51
2016-06-13T05:48:04.973Z,21.45
2016-06-13T05:49:04.773Z,21.49
2016-06-13T05:50:04.979Z,21.52
2016-06-13T05:51:04.779Z,21.49
2016-06-13T05:52:04.970Z,21.46
2016-06-13T05:53:05.191Z,21.46
2016-06-13T05:54:04.977Z,21.55
2016-06-13T05:55:04.558Z,21.51
2016-06-13T05:56:04.982Z,21.51
2016-06-13T05:57:04.861Z,21.48
2016-06-13T05:58:04.973Z,21.52
2016-06-13T05:59:04.554Z,21.52
2016-06-13T06:00:05.182Z,21.51
2016-06-13T06:01:05.168Z,21.49
2016-06-13T06:02:04.813Z,21.46
2016-06-13T06:03:04.754Z,21.52
2016-06-13T06:04:04.975Z,21.53
2016-06-13T06:05:04.978Z,21.46
2016-06-13T06:06:04.764Z,21.48
2016-06-13T06:07:05.172Z,21.49
2016-06-13T06:08:04.972Z,21.53
2016-06-13T06:09:04.959Z,21.52
2016-06-13T06:10:04.963Z,21.55
2016-06-13T06:11:04.763Z,21.53
2016-06-13T06:12:04.624Z,21.48
2016-06-13T06:13:05.253Z,21.56
2016-06-13T06:14:04.959Z,21.52
2016-06-13T06:15:05.009Z,21.45
2016-06-13T06:16:04.762Z,21.49
2016-06-13T06:17:04.953Z,21.49
2016-06-13T06:18:04.971Z,21.53
2016-06-13T06:19:04.756Z,21.49
2016-06-13T06:20:05.149Z,21.55
2016-06-13T06:21:04.965Z,21.46
2016-06-13T06:22:04.952Z,21.53
2016-06-13T06:23:04.753Z,21.49
2016-06-13T06:24:04.959Z,21.49
2016-06-13T06:25:04.946Z,21.48
2016-06-13T06:26:04.559Z,21.49
2016-06-13T06:27:05.171Z,21.49
2016-06-13T06:28:04.627Z,21.49
2016-06-13T06:29:04.755Z,21.55
2016-06-13T06:30:04.743Z,21.52
2016-06-13T06:31:05.152Z,21.52
2016-06-13T06:32:04.952Z,21.55
2016-06-13T06:33:04.752Z,21.48
2016-06-13T06:34:04.943Z,21.53
2016-06-13T06:35:04.759Z,21.46
2016-06-13T06:36:04.949Z,21.49
2016-06-13T06:37:04.748Z,21.49
2016-06-13T06:38:04.736Z,21.48
2016-06-13T06:39:04.599Z,21.56
2016-06-13T06:40:04.946Z,21.55
2016-06-13T06:41:04.949Z,21.55
2016-06-13T06:42:04.780Z,21.55
2016-06-13T06:43:04.798Z,21.46
2016-06-13T06:44:04.786Z,21.51
2016-06-13T06:45:04.789Z,21.49
2016-06-13T06:46:04.745Z,21.48
2016-06-13T06:47:04.952Z,21.53
2016-06-13T06:48:04.751Z,21.49
2016-06-13T06:49:04.942Z,21.46
2016-06-13T06:50:05.132Z,21.53
2016-06-13T06:51:04.948Z,21.51
2016-06-13T06:52:04.733Z,21.51
2016-06-13T06:53:04.939Z,21.51
2016-06-13T06:54:04.942Z,21.49
2016-06-13T06:55:04.928Z,21.55
2016-06-13T06:56:04.542Z,21.53
2016-06-13T06:57:04.951Z,21.52
2016-06-13T06:58:05.141Z,21.49
2016-06-13T06:59:05.144Z,21.49
2016-06-13T07:00:04.929Z,21.48
2016-06-13T07:01:04.933Z,21.52
2016-06-13T07:02:04.731Z,21.52
2016-06-13T07:03:04.953Z,21.55
2016-06-13T07:04:04.926Z,21.56
2016-06-13T07:05:04.929Z,21.52
2016-06-13T07:06:04.744Z,21.56
2016-06-13T07:07:04.951Z,21.52
2016-06-13T07:08:04.532Z,21.53
2016-06-13T07:09:04.738Z,21.52
2016-06-13T07:10:04.772Z,21.51
2016-06-13T07:11:04.931Z,21.51
2016-06-13T07:12:05.262Z,21.55
2016-06-13T07:13:05.484Z,21.56
2016-06-13T07:14:04.723Z,21.53
2016-06-13T07:15:04.943Z,21.49
2016-06-13T07:16:04.932Z,21.51
2016-06-13T07:17:04.732Z,21.56
2016-06-13T07:18:04.922Z,21.53
2016-06-13T07:19:04.925Z,21.55
2016-06-13T07:20:05.130Z,21.52
2016-06-13T07:21:04.712Z,21.53
2016-06-13T07:22:04.918Z,21.53
2016-06-13T07:23:04.734Z,21.52
2016-06-13T07:24:04.737Z,21.53
2016-06-13T07:25:04.928Z,21.51
2016-06-13T07:26:05.118Z,21.52
2016-06-13T07:27:05.121Z,21.51
2016-06-13T07:28:04.781Z,21.52
2016-06-13T07:29:04.925Z,21.48
2016-06-13T07:30:04.974Z,21.52
2016-06-13T07:31:05.117Z,21.51
2016-06-13T07:32:04.917Z,21.58
2016-06-13T07:33:04.718Z,21.58
2016-06-13T07:34:04.923Z,21.56
2016-06-13T07:35:04.912Z,21.59
2016-06-13T07:36:04.711Z,21.58
2016-06-13T07:37:04.902Z,21.59
2016-06-13T07:38:04.905Z,21.61
2016-06-13T07:39:05.111Z,21.62
2016-06-13T07:40:04.723Z,21.52
2016-06-13T07:41:04.915Z,21.56
2016-06-13T07:42:05.433Z,21.51
2016-06-13T07:43:04.421Z,21.64
2016-06-13T07:44:05.174Z,21.61
2016-06-13T07:45:04.910Z,21.61
2016-06-13T07:46:04.757Z,21.7
2016-06-13T07:47:04.714Z,21.64
2016-06-13T07:48:04.905Z,21.61
2016-06-13T07:49:04.501Z,21.61
2016-06-13T07:50:05.114Z,21.61
2016-06-13T07:51:04.711Z,21.59
2016-06-13T07:52:05.120Z,21.66
2016-06-13T07:53:05.108Z,21.62
2016-06-13T07:54:05.110Z,21.68
2016-06-13T07:55:04.894Z,21.64
2016-06-13T07:56:05.102Z,21.59
2016-06-13T07:57:04.901Z,21.61
2016-06-13T07:58:05.997Z,21.62
2016-06-13T07:59:05.126Z,21.66
2016-06-13T08:00:04.910Z,21.66
2016-06-13T08:01:04.913Z,21.68
2016-06-13T08:02:04.698Z,21.67
2016-06-13T08:03:04.701Z,21.68
2016-06-13T08:04:04.907Z,21.58
2016-06-13T08:05:04.769Z,21.61
2016-06-13T08:06:04.694Z,21.62
2016-06-13T08:07:04.697Z,21.66
2016-06-13T08:08:04.684Z,21.64
2016-06-13T08:09:04.688Z,21.59
2016-06-13T08:10:04.690Z,21.7
2016-06-13T08:11:04.897Z,21.61
2016-06-13T08:12:04.682Z,21.61
2016-06-13T08:13:05.185Z,21.62
2016-06-13T08:14:04.890Z,21.62
2016-06-13T08:15:05.097Z,21.62
2016-06-13T08:16:04.693Z,21.73
2016-06-13T08:17:04.884Z,21.64
2016-06-13T08:18:04.887Z,21.61
2016-06-13T08:19:05.093Z,21.64
2016-06-13T08:20:05.096Z,21.76
2016-06-13T08:21:04.679Z,21.66
2016-06-13T08:22:04.884Z,21.66
2016-06-13T08:23:04.685Z,21.64
2016-06-13T08:24:04.890Z,21.59
2016-06-13T08:25:04.877Z,21.73
2016-06-13T08:26:05.100Z,21.64
2016-06-13T08:27:05.087Z,21.64
2016-06-13T08:28:04.745Z,21.7
2016-06-13T08:29:04.484Z,21.73
2016-06-13T08:30:04.893Z,21.62
2016-06-13T08:31:05.084Z,21.66
2016-06-13T08:32:05.087Z,21.64
2016-06-13T08:33:04.886Z,21.62
2016-06-13T08:34:05.093Z,21.7
2016-06-13T08:35:04.877Z,21.68
2016-06-13T08:36:05.084Z,21.73
2016-06-13T08:37:04.665Z,21.74
2016-06-13T08:38:04.902Z,21.76
2016-06-13T08:39:04.529Z,21.71
2016-06-13T08:40:04.674Z,21.73
2016-06-13T08:41:04.896Z,21.68
2016-06-13T08:42:04.726Z,21.76
2016-06-13T08:43:04.824Z,21.7
2016-06-13T08:44:05.124Z,21.73
2016-06-13T08:45:05.080Z,21.74
2016-06-13T08:46:04.864Z,21.7
2016-06-13T08:47:04.883Z,21.76
2016-06-13T08:48:04.667Z,21.76
2016-06-13T08:49:04.874Z,21.71
2016-06-13T08:50:04.876Z,21.7
2016-06-13T08:51:05.082Z,21.71
2016-06-13T08:52:05.070Z,21.61
2016-06-13T08:53:04.870Z,21.74
2016-06-13T08:54:04.857Z,21.68
2016-06-13T08:55:04.861Z,21.76
2016-06-13T08:56:04.864Z,21.73
2016-06-13T08:57:04.867Z,21.71
2016-06-13T08:58:05.463Z,21.7
2016-06-13T08:59:04.873Z,21.73
2016-06-13T09:00:04.891Z,21.74
2016-06-13T09:01:04.661Z,21.74
2016-06-13T09:02:04.663Z,21.66
2016-06-13T09:03:04.869Z,21.74
2016-06-13T09:04:04.872Z,21.74
2016-06-13T09:05:05.064Z,21.71
2016-06-13T09:06:04.878Z,21.64
2016-06-13T09:07:04.710Z,21.68
2016-06-13T09:08:04.854Z,21.71
2016-06-13T09:09:05.060Z,21.71
2016-06-13T09:10:05.063Z,21.68
2016-06-13T09:11:04.862Z,21.68
2016-06-13T09:12:04.647Z,21.68
2016-06-13T09:13:04.869Z,21.7
2016-06-13T09:14:04.653Z,21.68
2016-06-13T09:15:04.640Z,21.73
2016-06-13T09:16:04.660Z,21.7
2016-06-13T09:17:04.850Z,21.7
2016-06-13T09:18:04.853Z,21.71
2016-06-13T09:19:04.653Z,21.76
2016-06-13T09:20:05.063Z,21.76
2016-06-13T09:21:04.862Z,21.62
2016-06-13T09:22:04.866Z,21.71
2016-06-13T09:23:04.650Z,21.62
2016-06-13T09:24:04.855Z,21.62
2016-06-13T09:25:04.859Z,21.67
2016-06-13T09:26:05.065Z,21.66
2016-06-13T09:27:04.849Z,21.7
2016-06-13T09:28:04.852Z,21.71
2016-06-13T09:29:05.059Z,21.64
2016-06-13T09:30:04.640Z,21.67
2016-06-13T09:31:04.643Z,21.68
2016-06-13T09:32:04.850Z,21.68
2016-06-13T09:33:04.650Z,21.71
2016-06-13T09:34:04.840Z,21.7
2016-06-13T09:35:04.843Z,21.7
2016-06-13T09:36:04.439Z,21.68
2016-06-13T09:37:04.833Z,21.68
2016-06-13T09:38:04.836Z,21.71
2016-06-13T09:39:04.433Z,21.67
2016-06-13T09:40:05.046Z,21.71
2016-06-13T09:41:04.642Z,21.71
2016-06-13T09:42:05.052Z,21.7
2016-06-13T09:43:04.274Z,21.7
2016-06-13T09:44:04.527Z,21.7
2016-06-13T09:45:04.436Z,21.71
2016-06-13T09:46:04.439Z,21.68
2016-06-13T09:47:05.052Z,21.62
2016-06-13T09:48:04.836Z,21.66
2016-06-13T09:49:04.682Z,21.67
2016-06-13T09:50:04.639Z,21.67
2016-06-13T09:51:04.626Z,21.67
2016-06-13T09:52:04.629Z,21.77
2016-06-13T09:53:04.836Z,21.67
2016-06-13T09:54:04.635Z,21.77
2016-06-13T09:55:04.639Z,21.71
2016-06-13T09:56:04.641Z,21.74
2016-06-13T09:57:04.832Z,21.8
2016-06-13T09:58:04.836Z,21.74
2016-06-13T09:59:04.822Z,21.78
2016-06-13T10:00:04.841Z,21.76
2016-06-13T10:01:05.031Z,21.77
2016-06-13T10:02:04.832Z,21.78
2016-06-13T10:03:04.648Z,21.8
2016-06-13T10:04:05.040Z,21.73
2016-06-13T10:05:05.044Z,21.85
2016-06-13T10:06:04.626Z,21.77
2016-06-13T10:07:04.629Z,21.89
2016-06-13T10:08:05.053Z,21.71
2016-06-13T10:09:04.839Z,21.8
2016-06-13T10:10:04.638Z,21.82
2016-06-13T10:11:04.422Z,21.86
2016-06-13T10:12:04.832Z,21.82
2016-06-13T10:13:04.898Z,21.85
2016-06-13T10:14:04.478Z,21.85
2016-06-13T10:15:04.824Z,21.89
2016-06-13T10:16:04.625Z,21.9
2016-06-13T10:17:04.628Z,21.86
2016-06-13T10:18:04.413Z,21.86
2016-06-13T10:19:04.446Z,21.86
2016-06-13T10:20:05.028Z,21.89
2016-06-13T10:21:04.828Z,21.89
2016-06-13T10:22:04.471Z,21.94
2016-06-13T10:23:05.037Z,21.92
2016-06-13T10:24:04.822Z,21.86
2016-06-13T10:25:04.824Z,21.9
2016-06-13T10:26:04.827Z,21.94
2016-06-13T10:27:04.830Z,21.9
2016-06-13T10:28:04.834Z,21.97
2016-06-13T10:29:04.900Z,21.9
2016-06-13T10:30:04.824Z,21.86
2016-06-13T10:31:04.828Z,21.97
2016-06-13T10:32:04.815Z,21.92
2016-06-13T10:33:04.818Z,21.94
2016-06-13T10:34:04.821Z,21.99
2016-06-13T10:35:04.825Z,21.86
2016-06-13T10:36:04.686Z,21.99
2016-06-13T10:37:04.814Z,21.99
2016-06-13T10:38:04.614Z,21.97
2016-06-13T10:39:04.836Z,21.97
2016-06-13T10:40:04.620Z,21.9
2016-06-13T10:41:04.624Z,21.96
2016-06-13T10:42:05.440Z,21.93
2016-06-13T10:43:04.427Z,21.9
2016-06-13T10:44:05.320Z,21.94
2016-06-13T10:45:04.808Z,21.9
2016-06-13T10:46:04.811Z,21.96
2016-06-13T10:47:04.627Z,21.96
2016-06-13T10:48:04.614Z,21.97
2016-06-13T10:49:04.820Z,22.04
2016-06-13T10:50:04.823Z,21.99
2016-06-13T10:51:04.607Z,21.93
2016-06-13T10:52:04.407Z,21.93
2016-06-13T10:53:04.410Z,21.92
2016-06-13T10:54:04.648Z,21.9
2016-06-13T10:55:05.011Z,22
2016-06-13T10:56:04.811Z,21.97
2016-06-13T10:57:04.611Z,21.89
2016-06-13T10:58:05.629Z,21.93
2016-06-13T10:59:06.054Z,21.93
2016-06-13T11:00:04.604Z,21.93
2016-06-13T11:01:04.810Z,22
2016-06-13T11:02:04.813Z,22
2016-06-13T11:03:04.816Z,22.02
2016-06-13T11:04:04.819Z,21.99
2016-06-13T11:05:04.400Z,22.02
2016-06-13T11:06:04.811Z,22.12
2016-06-13T11:07:04.814Z,22.05
2016-06-13T11:08:04.613Z,22.09
2016-06-13T11:09:04.616Z,22.05
2016-06-13T11:10:04.604Z,22.09
2016-06-13T11:11:04.607Z,22.08
2016-06-13T11:12:05.016Z,22.08
2016-06-13T11:13:05.753Z,22.14
2016-06-13T11:14:05.100Z,22.07
2016-06-13T11:15:04.806Z,22.14
2016-06-13T11:16:04.809Z,22.2
2016-06-13T11:17:05.015Z,22.18
2016-06-13T11:18:04.800Z,22.22
2016-06-13T11:19:05.006Z,22.2
2016-06-13T11:20:04.807Z,22.16
2016-06-13T11:21:04.607Z,22.22
2016-06-13T11:22:04.797Z,22.23
2016-06-13T11:23:05.002Z,22.26
2016-06-13T11:24:04.600Z,22.18
2016-06-13T11:25:04.603Z,22.2
2016-06-13T11:26:04.793Z,22.23
2016-06-13T11:27:04.453Z,22.27
2016-06-13T11:28:04.799Z,22.3
2016-06-13T11:29:05.177Z,22.26
2016-06-13T11:30:04.993Z,22.24
2016-06-13T11:31:04.808Z,22.29
2016-06-13T11:32:05.015Z,22.24
2016-06-13T11:33:05.002Z,22.24
2016-06-13T11:34:04.600Z,22.27
2016-06-13T11:35:04.603Z,22.33
2016-06-13T11:36:04.793Z,22.27
2016-06-13T11:37:04.390Z,22.29
2016-06-13T11:38:04.799Z,22.27
2016-06-13T11:39:04.802Z,22.27
2016-06-13T11:40:04.993Z,22.45
2016-06-13T11:41:04.996Z,22.34
2016-06-13T11:42:04.639Z,22.41
2016-06-13T11:43:04.799Z,22.44
2016-06-13T11:44:05.146Z,22.42
2016-06-13T11:45:04.790Z,22.42
2016-06-13T11:46:04.995Z,22.38
2016-06-13T11:47:04.795Z,22.41
2016-06-13T11:48:04.798Z,22.38
2016-06-13T11:49:05.004Z,22.44
2016-06-13T11:50:04.585Z,22.45
2016-06-13T11:51:04.808Z,22.38
2016-06-13T11:52:04.998Z,22.46
2016-06-13T11:53:04.595Z,22.48
2016-06-13T11:54:05.004Z,22.45
2016-06-13T11:55:04.586Z,22.55
2016-06-13T11:56:04.995Z,22.52
2016-06-13T11:57:04.796Z,22.46
2016-06-13T11:58:05.173Z,22.52
2016-06-13T11:59:04.879Z,22.57
2016-06-13T12:00:04.601Z,22.45
2016-06-13T12:01:04.995Z,22.57
2016-06-13T12:02:04.795Z,22.51
2016-06-13T12:03:04.375Z,22.49
2016-06-13T12:04:04.785Z,22.45
2016-06-13T12:05:04.600Z,22.45
2016-06-13T12:06:04.790Z,22.54
2016-06-13T12:07:04.826Z,22.46
2016-06-13T12:08:04.797Z,22.49
2016-06-13T12:09:04.988Z,22.48
2016-06-13T12:10:04.582Z,22.49
2016-06-13T12:11:04.994Z,22.51
2016-06-13T12:12:04.794Z,22.38
2016-06-13T12:13:04.591Z,22.44
2016-06-13T12:14:04.784Z,22.46
2016-06-13T12:15:04.612Z,22.51
2016-06-13T12:16:04.788Z,22.48
2016-06-13T12:17:04.790Z,22.54
2016-06-13T12:18:04.778Z,22.46
2016-06-13T12:19:04.988Z,22.48
2016-06-13T12:20:04.785Z,22.46
2016-06-13T12:21:04.788Z,22.54
2016-06-13T12:22:04.775Z,22.55
2016-06-13T12:23:04.840Z,22.52
2016-06-13T12:24:04.781Z,22.54
2016-06-13T12:25:04.784Z,22.48
2016-06-13T12:26:04.382Z,22.51
2016-06-13T12:27:04.446Z,22.51
2016-06-13T12:28:04.793Z,22.55
2016-06-13T12:29:05.297Z,22.57
2016-06-13T12:30:04.800Z,22.48
2016-06-13T12:31:04.569Z,22.46
2016-06-13T12:32:04.774Z,22.57
2016-06-13T12:33:04.778Z,22.57
2016-06-13T12:34:04.812Z,22.52
2016-06-13T12:35:05.059Z,22.55
2016-06-13T12:36:04.681Z,22.52
2016-06-13T12:37:04.724Z,22.52
2016-06-13T12:38:04.987Z,22.59
2016-06-13T12:39:04.822Z,22.55
2016-06-13T12:40:04.825Z,22.59
2016-06-13T12:41:05.218Z,22.64
2016-06-13T12:42:04.829Z,22.61
2016-06-13T12:43:04.847Z,22.55
2016-06-13T12:44:04.748Z,22.63
2016-06-13T12:45:04.881Z,22.67
2016-06-13T12:46:04.670Z,22.7
2016-06-13T12:47:05.288Z,22.64
2016-06-13T12:48:04.874Z,22.69
2016-06-13T12:49:04.895Z,22.73
2016-06-13T12:50:05.088Z,22.73
2016-06-13T12:51:05.296Z,22.63
2016-06-13T12:52:04.942Z,22.67
2016-06-13T12:53:05.290Z,22.64
2016-06-13T12:54:05.294Z,22.66
2016-06-13T12:55:05.095Z,22.73